createdAt,value
2022-12-09T00:02:20.160Z,12.20
2022-12-09T00:04:49.068Z,12.97
2022-12-09T00:07:19.007Z,13.03
2022-12-09T00:09:47.288Z,12.47
2022-12-09T00:12:15.582Z,13.53
2022-12-09T00:14:43.931Z,13.27
2022-12-09T00:17:12.230Z,12.37
2022-12-09T00:19:40.581Z,13.00
2022-12-09T00:22:08.784Z,13.33
2022-12-09T00:24:38.341Z,12.80
2022-12-09T00:27:06.571Z,14.20
2022-12-09T00:29:34.996Z,12.70
2022-12-09T00:32:03.339Z,13.50
2022-12-09T00:34:31.576Z,13.40
2022-12-09T00:36:59.728Z,13.53
2022-12-09T00:39:28.392Z,13.70
2022-12-09T00:41:57.961Z,13.37
2022-12-09T00:44:27.140Z,13.70
2022-12-09T00:46:55.471Z,12.30
2022-12-09T00:49:24.375Z,12.57
2022-12-09T00:51:54.087Z,12.80
2022-12-09T00:54:23.505Z,11.27
2022-12-09T00:56:52.059Z,12.27
2022-12-09T00:59:22.195Z,12.40
2022-12-09T01:01:50.630Z,11.93
2022-12-09T01:04:21.322Z,12.93
2022-12-09T01:06:49.612Z,12.90
2022-12-09T01:09:17.989Z,11.83
2022-12-09T01:11:46.476Z,13.00
2022-12-09T01:14:14.817Z,12.70
2022-12-09T01:16:44.470Z,12.50
2022-12-09T01:19:15.333Z,11.90
2022-12-09T01:21:43.743Z,12.63
2022-12-09T01:24:12.720Z,12.40
2022-12-09T01:26:41.216Z,13.27
2022-12-09T01:29:09.791Z,12.27
2022-12-09T01:31:38.255Z,13.87
2022-12-09T01:34:08.160Z,13.13
2022-12-09T01:36:36.400Z,12.30
2022-12-09T01:39:05.745Z,12.70
2022-12-09T01:41:35.145Z,12.90
2022-12-09T01:44:16.260Z,13.00
2022-12-09T01:46:45.439Z,11.83
2022-12-09T01:49:19.580Z,12.60
2022-12-09T01:51:55.218Z,11.63
2022-12-09T01:54:23.625Z,12.77
2022-12-09T01:56:53.019Z,13.73
2022-12-09T01:59:22.915Z,13.40
2022-12-09T02:01:55.581Z,13.93
2022-12-09T02:04:25.532Z,11.83
2022-12-09T02:06:54.403Z,11.37
2022-12-09T02:09:23.269Z,12.73
2022-12-09T02:12:09.480Z,13.70
2022-12-09T02:14:42.643Z,13.20
2022-12-09T02:17:31.358Z,12.13
2022-12-09T02:20:11.703Z,11.37
2022-12-09T02:22:44.014Z,12.30
2022-12-09T02:25:24.391Z,11.90
2022-12-09T02:28:09.636Z,11.83
2022-12-09T02:30:42.135Z,11.20
2022-12-09T02:33:25.640Z,12.77
2022-12-09T02:35:59.150Z,13.10
2022-12-09T02:38:32.623Z,11.90
2022-12-09T02:41:06.997Z,12.97
2022-12-09T02:43:49.378Z,12.37
2022-12-09T02:46:22.909Z,12.73
2022-12-09T02:48:55.860Z,13.67
2022-12-09T02:51:28.015Z,11.90
2022-12-09T02:54:03.409Z,11.97
2022-12-09T02:56:35.925Z,11.00
2022-12-09T02:59:05.254Z,11.07
2022-12-09T03:01:39.370Z,10.73
2022-12-09T03:04:10.721Z,12.37
2022-12-09T03:06:48.369Z,13.03
2022-12-09T03:09:21.605Z,12.43
2022-12-09T03:11:52.078Z,12.37
2022-12-09T03:14:27.243Z,13.03
2022-12-09T03:17:02.021Z,13.30
2022-12-09T03:19:35.034Z,12.00
2022-12-09T03:22:09.943Z,12.13
2022-12-09T03:24:42.210Z,13.10
2022-12-09T03:27:14.386Z,10.87
2022-12-09T03:29:49.290Z,11.00
2022-12-09T03:32:20.985Z,12.30
2022-12-09T03:34:52.197Z,12.53
2022-12-09T03:37:23.212Z,11.50
2022-12-09T03:39:53.068Z,13.33
2022-12-09T03:42:25.677Z,11.67
2022-12-09T03:44:57.374Z,12.60
2022-12-09T03:47:25.900Z,13.47
2022-12-09T03:49:54.775Z,12.33
2022-12-09T03:52:30.688Z,11.80
2022-12-09T03:55:02.377Z,12.13
2022-12-09T03:57:30.907Z,11.67
2022-12-09T04:00:01.725Z,14.00
2022-12-09T04:02:30.543Z,12.43
2022-12-09T04:04:59.344Z,13.50
2022-12-09T04:07:29.036Z,12.83
2022-12-09T04:09:57.760Z,13.43
2022-12-09T04:12:25.986Z,12.83
2022-12-09T04:14:54.415Z,11.90
2022-12-09T04:17:22.734Z,12.17
2022-12-09T04:19:51.776Z,11.90
2022-12-09T04:22:20.790Z,12.93
2022-12-09T04:24:50.455Z,12.07
2022-12-09T04:27:19.020Z,12.03
2022-12-09T04:29:47.205Z,13.00
2022-12-09T04:32:15.656Z,12.00
2022-12-09T04:34:44.172Z,12.57
2022-12-09T04:37:13.048Z,12.63
2022-12-09T04:39:41.933Z,11.37
2022-12-09T04:42:11.735Z,13.07
2022-12-09T04:44:40.165Z,11.73
2022-12-09T04:47:08.780Z,13.40
2022-12-09T04:49:37.543Z,11.50
2022-12-09T04:52:06.273Z,12.57
2022-12-09T04:54:34.663Z,12.50
2022-12-09T04:57:03.136Z,11.00
2022-12-09T04:59:33.659Z,26.10
2022-12-09T05:02:02.319Z,16.63
2022-12-09T05:04:31.198Z,14.77
2022-12-09T05:06:59.639Z,14.20
2022-12-09T05:09:28.072Z,12.67
2022-12-09T05:11:58.735Z,12.67
2022-12-09T05:14:27.506Z,11.97
2022-12-09T05:16:57.511Z,11.97
2022-12-09T05:19:25.996Z,12.50
2022-12-09T05:21:54.709Z,12.70
2022-12-09T05:24:23.054Z,11.67
2022-12-09T05:26:51.917Z,12.03
2022-12-09T05:29:23.083Z,11.30
2022-12-09T05:31:52.570Z,12.30
2022-12-09T05:34:22.692Z,11.83
2022-12-09T05:36:52.015Z,12.63
2022-12-09T05:39:20.980Z,12.60
2022-12-09T05:41:49.599Z,12.07
2022-12-09T05:44:18.282Z,11.90
2022-12-09T05:46:46.968Z,11.17
2022-12-09T05:49:15.521Z,14.27
2022-12-09T05:51:45.503Z,14.37
2022-12-09T05:54:13.828Z,12.50
2022-12-09T05:56:47.847Z,12.90
2022-12-09T05:59:16.959Z,13.40
2022-12-09T06:01:45.735Z,12.47
2022-12-09T06:04:14.644Z,13.50
2022-12-09T06:06:43.360Z,12.10
2022-12-09T06:09:13.486Z,12.30
2022-12-09T06:11:42.393Z,13.03
2022-12-09T06:14:12.219Z,11.60
2022-12-09T06:16:40.704Z,12.37
2022-12-09T06:19:12.236Z,12.77
2022-12-09T06:21:41.079Z,12.20
2022-12-09T06:24:10.545Z,13.13
2022-12-09T06:26:40.637Z,12.50
2022-12-09T06:29:09.284Z,12.40
2022-12-09T06:31:37.998Z,12.47
2022-12-09T06:34:06.827Z,14.97
2022-12-09T06:36:35.142Z,16.60
2022-12-09T06:39:09.901Z,15.13
2022-12-09T06:41:41.395Z,14.90
2022-12-09T06:44:11.721Z,12.17
2022-12-09T06:46:40.686Z,12.50
2022-12-09T06:49:10.305Z,11.70
2022-12-09T06:51:38.765Z,12.50
2022-12-09T06:54:10.296Z,11.77
2022-12-09T06:56:40.512Z,12.67
2022-12-09T06:59:10.767Z,11.93
2022-12-09T07:01:39.775Z,11.63
2022-12-09T07:04:08.702Z,12.27
2022-12-09T07:06:39.554Z,11.63
2022-12-09T07:09:10.580Z,10.70
2022-12-09T07:11:42.349Z,10.23
2022-12-09T07:14:11.593Z,10.20
2022-12-09T07:16:40.159Z,11.30
2022-12-09T07:19:09.563Z,10.87
2022-12-09T07:21:38.353Z,9.90
2022-12-09T07:24:07.678Z,10.97
2022-12-09T07:26:36.474Z,9.23
2022-12-09T07:29:07.405Z,9.20
2022-12-09T07:31:36.573Z,10.30
2022-12-09T07:34:06.637Z,10.30
2022-12-09T07:36:36.697Z,10.47
2022-12-09T07:39:09.089Z,10.07
2022-12-09T07:41:37.556Z,9.43
2022-12-09T07:44:07.461Z,10.67
2022-12-09T07:46:35.910Z,11.57
2022-12-09T07:49:06.348Z,9.23
2022-12-09T07:51:36.309Z,11.97
2022-12-09T07:54:05.486Z,11.63
2022-12-09T07:56:34.339Z,12.33
2022-12-09T07:59:02.902Z,12.30
2022-12-09T08:01:33.056Z,11.47
2022-12-09T08:04:02.601Z,13.90
2022-12-09T08:06:32.201Z,13.33
2022-12-09T08:09:02.398Z,11.03
2022-12-09T08:11:33.119Z,9.77
2022-12-09T08:14:08.901Z,9.40
2022-12-09T08:16:41.903Z,8.77
2022-12-09T08:19:12.184Z,8.17
2022-12-09T08:21:41.582Z,9.40
2022-12-09T08:24:13.211Z,7.30
2022-12-09T08:26:42.529Z,7.77
2022-12-09T08:29:13.146Z,8.47
2022-12-09T08:31:45.209Z,7.50
2022-12-09T08:34:14.399Z,8.17
2022-12-09T08:36:43.598Z,8.13
2022-12-09T08:39:13.203Z,7.80
2022-12-09T08:41:41.993Z,7.20
2022-12-09T08:44:12.957Z,8.07
2022-12-09T08:46:45.584Z,7.77
2022-12-09T08:49:18.799Z,8.00
2022-12-09T08:51:48.622Z,7.73
2022-12-09T08:54:17.980Z,7.47
2022-12-09T08:56:47.641Z,8.20
2022-12-09T08:59:16.969Z,8.00
2022-12-09T09:01:47.500Z,8.00
2022-12-09T09:04:18.714Z,8.30
2022-12-09T09:06:50.292Z,8.40
2022-12-09T09:09:20.552Z,9.33
2022-12-09T09:11:49.558Z,8.07
2022-12-09T09:14:18.455Z,8.60
2022-12-09T09:16:48.331Z,8.30
2022-12-09T09:19:18.810Z,7.67
2022-12-09T09:21:47.990Z,8.83
2022-12-09T09:24:19.104Z,9.13
2022-12-09T09:26:49.307Z,8.03
2022-12-09T09:29:19.789Z,7.40
2022-12-09T09:31:54.537Z,8.30
2022-12-09T09:34:24.089Z,6.43
2022-12-09T09:36:52.791Z,7.57
2022-12-09T09:39:22.406Z,6.17
2022-12-09T09:41:54.505Z,6.67
2022-12-09T09:44:28.991Z,6.43
2022-12-09T09:46:59.637Z,5.50
2022-12-09T09:49:35.895Z,5.10
2022-12-09T09:52:08.575Z,6.67
2022-12-09T09:54:37.880Z,6.10
2022-12-09T09:57:14.305Z,6.00
2022-12-09T09:59:57.755Z,5.43
2022-12-09T10:02:42.091Z,5.50
2022-12-09T10:05:21.891Z,5.53
2022-12-09T10:07:53.622Z,5.77
2022-12-09T10:10:38.393Z,4.90
2022-12-09T10:13:22.056Z,5.37
2022-12-09T10:16:02.773Z,4.70
2022-12-09T10:18:40.536Z,5.13
2022-12-09T10:21:17.942Z,4.93
2022-12-09T10:23:47.847Z,7.13
2022-12-09T10:26:21.959Z,6.90
2022-12-09T10:28:56.328Z,6.30
2022-12-09T10:31:26.672Z,6.97
2022-12-09T10:33:56.548Z,6.43
2022-12-09T10:36:30.810Z,6.30
2022-12-09T10:39:03.966Z,5.27
2022-12-09T10:42:00.553Z,5.90
2022-12-09T10:44:29.694Z,4.40
2022-12-09T10:47:01.347Z,5.60
2022-12-09T10:49:32.186Z,6.40
2022-12-09T10:52:00.873Z,6.63
2022-12-09T10:54:36.486Z,5.43
2022-12-09T10:57:08.356Z,5.40
2022-12-09T10:59:37.588Z,5.80
2022-12-09T11:02:21.183Z,5.00
2022-12-09T11:04:51.559Z,6.07
2022-12-09T11:07:23.168Z,5.67
2022-12-09T11:10:04.272Z,4.40
2022-12-09T11:12:40.903Z,4.93
2022-12-09T11:15:30.470Z,4.90
2022-12-09T11:18:03.440Z,5.20
2022-12-09T11:20:34.648Z,4.40
2022-12-09T11:23:06.441Z,5.30
2022-12-09T11:25:36.964Z,16.30
2022-12-09T11:28:25.538Z,13.07
2022-12-09T11:33:52.008Z,6.07
2022-12-09T11:36:26.450Z,5.53
2022-12-09T11:39:16.873Z,4.83
2022-12-09T11:42:10.127Z,5.47
2022-12-09T11:44:49.276Z,4.90
2022-12-09T11:47:23.921Z,4.70
2022-12-09T11:49:55.752Z,4.50
2022-12-09T11:52:28.656Z,4.73
2022-12-09T11:55:14.456Z,4.70
2022-12-09T11:57:48.644Z,5.37
2022-12-09T12:00:23.102Z,5.40
2022-12-09T12:03:00.989Z,4.73
2022-12-09T12:05:34.459Z,5.70
2022-12-09T12:08:14.011Z,4.87
2022-12-09T12:10:45.089Z,5.17
2022-12-09T12:13:23.688Z,4.63
2022-12-09T12:15:59.651Z,4.87
2022-12-09T12:18:33.555Z,4.43
2022-12-09T12:21:22.436Z,40.80
2022-12-09T12:24:37.179Z,24.97
2022-12-09T12:27:18.045Z,13.63
2022-12-09T12:29:54.584Z,9.43
2022-12-09T12:32:34.351Z,6.90
2022-12-09T12:35:22.388Z,6.37
2022-12-09T12:38:02.830Z,4.97
2022-12-09T12:40:44.395Z,5.67
2022-12-09T12:43:46.329Z,7.17
2022-12-09T12:46:28.163Z,5.00
2022-12-09T12:49:12.342Z,5.40
2022-12-09T12:51:52.672Z,4.93
2022-12-09T12:54:34.213Z,4.70
2022-12-09T12:57:12.828Z,5.03
2022-12-09T12:59:50.273Z,4.70
2022-12-09T13:02:30.128Z,4.80
2022-12-09T13:05:03.557Z,14.07
2022-12-09T13:07:37.929Z,15.53
2022-12-09T13:10:16.659Z,8.83
2022-12-09T13:12:57.022Z,6.83
2022-12-09T13:15:32.323Z,5.50
2022-12-09T13:18:07.282Z,5.33
2022-12-09T13:20:44.800Z,4.70
2022-12-09T13:23:23.270Z,4.47
2022-12-09T13:26:02.919Z,4.23
2022-12-09T13:28:44.539Z,4.83
2022-12-09T13:31:13.145Z,4.33
2022-12-09T13:33:50.958Z,4.67
2022-12-09T13:36:23.178Z,4.60
2022-12-09T13:38:51.580Z,4.50
2022-12-09T13:42:03.395Z,4.70
2022-12-09T13:44:36.956Z,5.00
2022-12-09T13:47:16.404Z,5.30
2022-12-09T13:49:55.108Z,3.93
2022-12-09T13:52:43.875Z,4.40
2022-12-09T13:55:30.523Z,4.70
2022-12-09T13:58:13.996Z,4.33
2022-12-09T14:00:45.681Z,5.60
2022-12-09T14:03:28.958Z,5.50
2022-12-09T14:05:59.946Z,5.50
2022-12-09T14:08:33.102Z,5.40
2022-12-09T14:11:39.838Z,5.80
2022-12-09T14:14:39.638Z,5.53
2022-12-09T14:17:21.784Z,6.80
2022-12-09T14:19:54.862Z,6.67
2022-12-09T14:22:35.083Z,6.93
2022-12-09T14:25:36.064Z,7.33
2022-12-09T14:28:47.043Z,6.43
2022-12-09T14:31:59.953Z,7.60
2022-12-09T14:34:41.825Z,7.40
2022-12-09T14:37:30.768Z,8.33
2022-12-09T14:40:06.312Z,7.50
2022-12-09T14:42:44.835Z,9.20
2022-12-09T14:45:21.814Z,8.30
2022-12-09T14:47:50.424Z,8.30
2022-12-09T14:50:22.371Z,7.80
2022-12-09T14:52:52.782Z,6.60
2022-12-09T14:55:23.490Z,7.63
2022-12-09T14:57:53.162Z,7.60
2022-12-09T15:00:31.371Z,8.30
2022-12-09T15:05:58.251Z,50.17
2022-12-09T15:08:31.899Z,28.83
2022-12-09T15:11:01.237Z,17.60
2022-12-09T15:13:29.755Z,11.97
2022-12-09T15:15:58.539Z,11.10
2022-12-09T15:18:27.514Z,8.50
2022-12-09T15:20:58.638Z,9.20
2022-12-09T15:23:32.109Z,9.20
2022-12-09T15:26:02.742Z,7.77
2022-12-09T15:28:32.887Z,8.40
2022-12-09T15:31:03.337Z,7.73
2022-12-09T15:33:39.097Z,8.03
2022-12-09T15:36:11.694Z,8.13
2022-12-09T15:38:43.565Z,8.10
2022-12-09T15:41:29.172Z,7.60
2022-12-09T15:44:02.627Z,9.03
2022-12-09T15:46:33.440Z,8.60
2022-12-09T15:49:03.492Z,8.70
2022-12-09T15:51:34.272Z,7.60
2022-12-09T15:54:05.227Z,8.27
2022-12-09T15:56:39.602Z,8.70
2022-12-09T15:59:13.655Z,9.37
2022-12-09T16:01:49.602Z,9.57
2022-12-09T16:04:20.946Z,10.23
2022-12-09T16:06:51.350Z,9.10
2022-12-09T16:09:21.547Z,10.37
2022-12-09T16:11:54.565Z,9.90
2022-12-09T16:14:24.839Z,12.43
2022-12-09T16:16:56.515Z,16.10
2022-12-09T16:19:26.851Z,14.97
2022-12-09T16:21:59.268Z,11.90
2022-12-09T16:24:50.775Z,11.87
2022-12-09T16:27:20.488Z,12.17
2022-12-09T16:29:51.704Z,24.50
2022-12-09T16:32:28.250Z,22.10
2022-12-09T16:34:58.144Z,13.20
2022-12-09T16:37:37.712Z,11.10
2022-12-09T16:41:01.596Z,10.77
2022-12-09T16:43:30.603Z,11.30
2022-12-09T16:46:01.157Z,11.00
2022-12-09T16:48:30.683Z,10.40
2022-12-09T16:51:05.200Z,10.60
2022-12-09T16:53:38.271Z,9.33
2022-12-09T16:56:07.278Z,10.40
2022-12-09T16:58:36.144Z,10.00
2022-12-09T17:01:05.073Z,10.83
2022-12-09T17:03:37.903Z,9.90
2022-12-09T17:06:06.844Z,9.73
2022-12-09T17:08:37.891Z,8.70
2022-12-09T17:11:06.355Z,9.80
2022-12-09T17:13:35.792Z,10.00
2022-12-09T17:16:05.746Z,10.40
2022-12-09T17:18:34.472Z,10.03
2022-12-09T17:21:04.125Z,10.50
2022-12-09T17:23:39.111Z,10.07
2022-12-09T17:26:11.189Z,8.53
2022-12-09T17:28:40.545Z,9.60
2022-12-09T17:31:10.075Z,9.90
2022-12-09T17:33:38.701Z,10.30
2022-12-09T17:36:08.039Z,10.17
2022-12-09T17:38:36.316Z,10.97
2022-12-09T17:41:05.685Z,10.20
2022-12-09T17:43:35.941Z,9.33
2022-12-09T17:46:05.886Z,9.90
2022-12-09T17:48:35.662Z,9.97
2022-12-09T17:51:07.802Z,9.40
2022-12-09T17:53:37.211Z,11.50
2022-12-09T17:56:09.630Z,12.37
2022-12-09T17:58:39.620Z,11.27
2022-12-09T18:01:14.255Z,11.60
2022-12-09T18:04:00.459Z,10.73
2022-12-09T18:06:34.309Z,10.83
2022-12-09T18:09:03.030Z,12.30
2022-12-09T18:11:31.451Z,12.33
2022-12-09T18:14:01.246Z,10.90
2022-12-09T18:16:30.122Z,12.10
2022-12-09T18:19:04.380Z,11.37
2022-12-09T18:21:33.274Z,11.27
2022-12-09T18:24:01.943Z,11.67
2022-12-09T18:26:34.049Z,16.50
2022-12-09T18:29:06.505Z,19.57
2022-12-09T18:31:35.072Z,18.53
2022-12-09T18:34:03.627Z,19.10
2022-12-09T18:36:32.017Z,17.80
2022-12-09T18:39:00.377Z,15.50
2022-12-09T18:41:30.822Z,12.33
2022-12-09T18:44:01.719Z,13.83
2022-12-09T18:46:33.832Z,12.50
2022-12-09T18:49:05.934Z,15.33
2022-12-09T18:51:34.499Z,14.90
2022-12-09T18:54:03.992Z,17.40
2022-12-09T18:56:33.063Z,37.00
2022-12-09T18:59:09.603Z,30.50
2022-12-09T19:01:41.324Z,23.47
2022-12-09T19:04:13.583Z,20.40
2022-12-09T19:06:43.619Z,18.73
2022-12-09T19:09:13.831Z,17.87
2022-12-09T19:11:43.070Z,15.80
2022-12-09T19:14:11.729Z,15.83
2022-12-09T19:16:41.735Z,15.27
2022-12-09T19:19:11.947Z,16.10
2022-12-09T19:21:40.621Z,15.03
2022-12-09T19:24:13.617Z,15.57
2022-12-09T19:26:42.972Z,14.67
2022-12-09T19:29:12.149Z,13.77
2022-12-09T19:31:44.328Z,15.27
2022-12-09T19:34:15.294Z,13.00
2022-12-09T19:36:49.867Z,13.33
2022-12-09T19:39:19.835Z,13.93
2022-12-09T19:41:48.476Z,14.17
2022-12-09T19:44:37.342Z,12.57
2022-12-09T19:47:08.406Z,16.63
2022-12-09T19:49:37.702Z,15.30
2022-12-09T19:52:06.007Z,17.27
2022-12-09T19:54:34.288Z,17.97
2022-12-09T19:57:02.583Z,16.77
2022-12-09T19:59:30.961Z,15.87
2022-12-09T20:01:59.315Z,15.17
2022-12-09T20:04:49.041Z,15.10
2022-12-09T20:07:18.337Z,14.10
2022-12-09T20:09:46.957Z,14.30
2022-12-09T20:12:15.585Z,15.23
2022-12-09T20:14:44.280Z,16.60
2022-12-09T20:17:12.604Z,16.00
2022-12-09T20:19:42.253Z,17.83
2022-12-09T20:22:10.788Z,18.47
2022-12-09T20:24:39.108Z,18.03
2022-12-09T20:27:07.685Z,18.13
2022-12-09T20:29:38.170Z,17.63
2022-12-09T20:32:07.223Z,18.43
2022-12-09T20:34:36.017Z,17.70
2022-12-09T20:37:05.985Z,20.17
2022-12-09T20:39:34.190Z,18.70
2022-12-09T20:42:02.579Z,18.83
2022-12-09T20:44:32.306Z,19.43
2022-12-09T20:47:00.536Z,20.23
2022-12-09T20:49:29.876Z,20.40
2022-12-09T20:51:58.301Z,20.70
2022-12-09T20:54:27.989Z,20.23
2022-12-09T20:56:56.332Z,20.33
2022-12-09T20:59:25.257Z,21.20
2022-12-09T21:01:55.789Z,20.60
2022-12-09T21:04:24.135Z,18.47
2022-12-09T21:06:52.496Z,17.97
2022-12-09T21:09:22.930Z,18.20
2022-12-09T21:11:52.684Z,17.90
2022-12-09T21:14:21.441Z,18.27
2022-12-09T21:16:51.325Z,18.07
2022-12-09T21:19:24.914Z,17.33
2022-12-09T21:21:54.681Z,17.70
2022-12-09T21:24:24.641Z,18.80
2022-12-09T21:26:56.026Z,18.10
2022-12-09T21:29:31.274Z,16.00
2022-12-09T21:32:01.366Z,16.03
2022-12-09T21:34:29.762Z,15.17
2022-12-09T21:36:58.066Z,15.20
2022-12-09T21:39:27.547Z,14.93
2022-12-09T21:41:57.570Z,15.03
2022-12-09T21:44:27.161Z,14.00
2022-12-09T21:46:55.568Z,14.57
2022-12-09T21:49:23.989Z,14.47
2022-12-09T21:51:52.407Z,15.30
2022-12-09T21:54:20.579Z,15.20
2022-12-09T21:56:48.850Z,16.00
2022-12-09T21:59:18.470Z,17.17
2022-12-09T22:01:46.865Z,17.80
2022-12-09T22:04:17.123Z,19.50
2022-12-09T22:06:48.236Z,19.00
2022-12-09T22:09:17.562Z,18.23
2022-12-09T22:11:45.736Z,19.43
2022-12-09T22:14:13.950Z,20.03
2022-12-09T22:16:45.597Z,21.20
2022-12-09T22:19:19.147Z,20.77
2022-12-09T22:21:47.947Z,21.10
2022-12-09T22:24:16.640Z,19.30
2022-12-09T22:26:45.252Z,19.60
2022-12-09T22:29:15.134Z,19.07
2022-12-09T22:31:45.320Z,21.10
2022-12-09T22:34:15.380Z,20.00
2022-12-09T22:36:44.225Z,21.63
2022-12-09T22:39:14.297Z,21.60
2022-12-09T22:41:43.701Z,18.20
2022-12-09T22:44:13.381Z,16.53
2022-12-09T22:46:42.203Z,17.13
2022-12-09T22:49:14.010Z,17.40
2022-12-09T22:51:42.987Z,17.00
2022-12-09T22:54:11.637Z,18.30
2022-12-09T22:56:42.267Z,17.47
2022-12-09T22:59:10.844Z,16.00
2022-12-09T23:01:39.271Z,17.37
2022-12-09T23:04:08.924Z,16.03
2022-12-09T23:06:40.055Z,16.43
2022-12-09T23:09:11.019Z,17.10
2022-12-09T23:11:39.294Z,16.27
2022-12-09T23:14:07.820Z,16.77
2022-12-09T23:16:36.709Z,16.50
2022-12-09T23:19:05.182Z,16.87
2022-12-09T23:21:35.720Z,16.70
2022-12-09T23:24:07.590Z,16.77
2022-12-09T23:26:39.478Z,18.40
2022-12-09T23:29:12.810Z,15.47
2022-12-09T23:31:41.159Z,16.57
2022-12-09T23:34:10.306Z,17.10
2022-12-09T23:36:40.464Z,17.80
2022-12-09T23:39:12.067Z,17.40
2022-12-09T23:41:41.800Z,16.77
2022-12-09T23:44:11.873Z,18.77
2022-12-09T23:46:40.832Z,17.87
2022-12-09T23:49:09.331Z,17.27
2022-12-09T23:51:40.510Z,16.93
2022-12-09T23:54:10.939Z,16.00
2022-12-09T23:56:44.161Z,16.60
2022-12-09T23:59:14.253Z,16.50
